sensor_id;sensor_type;location;lat;lon;timestamp;temperature;humidity
7658;DHT22;8462;53.156;8.220;2023-01-20T00:00:45;3.30;84.10
7658;DHT22;8462;53.156;8.220;2023-01-20T00:03:11;3.30;84.20
7658;DHT22;8462;53.156;8.220;2023-01-20T00:05:38;3.20;84.30
7658;DHT22;8462;53.156;8.220;2023-01-20T00:08:05;3.20;84.40
7658;DHT22;8462;53.156;8.220;2023-01-20T00:10:32;3.20;84.50
7658;DHT22;8462;53.156;8.220;2023-01-20T00:12:59;3.20;84.60
7658;DHT22;8462;53.156;8.220;2023-01-20T00:15:26;3.20;84.70
7658;DHT22;8462;53.156;8.220;2023-01-20T00:17:54;3.20;84.70
7658;DHT22;8462;53.156;8.220;2023-01-20T00:20:22;3.20;84.60
7658;DHT22;8462;53.156;8.220;2023-01-20T00:22:49;3.20;84.70
7658;DHT22;8462;53.156;8.220;2023-01-20T00:25:16;3.10;84.80
7658;DHT22;8462;53.156;8.220;2023-01-20T00:27:43;3.10;84.90
7658;DHT22;8462;53.156;8.220;2023-01-20T00:30:12;3.10;85.10
7658;DHT22;8462;53.156;8.220;2023-01-20T00:32:42;3.10;86.00
7658;DHT22;8462;53.156;8.220;2023-01-20T00:35:11;3.00;85.00
7658;DHT22;8462;53.156;8.220;2023-01-20T00:37:38;3.00;85.20
7658;DHT22;8462;53.156;8.220;2023-01-20T00:40:06;3.00;85.20
7658;DHT22;8462;53.156;8.220;2023-01-20T00:42:34;3.00;85.40
7658;DHT22;8462;53.156;8.220;2023-01-20T00:45:01;3.00;85.50
7658;DHT22;8462;53.156;8.220;2023-01-20T00:47:28;3.00;85.60
7658;DHT22;8462;53.156;8.220;2023-01-20T00:49:55;2.90;85.80
7658;DHT22;8462;53.156;8.220;2023-01-20T00:52:23;2.90;86.40
7658;DHT22;8462;53.156;8.220;2023-01-20T00:54:50;2.90;86.30
7658;DHT22;8462;53.156;8.220;2023-01-20T00:57:17;2.90;86.80
7658;DHT22;8462;53.156;8.220;2023-01-20T00:59:44;2.80;86.70
7658;DHT22;8462;53.156;8.220;2023-01-20T01:02:11;2.80;86.80
7658;DHT22;8462;53.156;8.220;2023-01-20T01:04:38;2.90;86.80
7658;DHT22;8462;53.156;8.220;2023-01-20T01:07:04;2.90;87.20
7658;DHT22;8462;53.156;8.220;2023-01-20T01:09:33;2.80;87.30
7658;DHT22;8462;53.156;8.220;2023-01-20T01:12:00;2.80;87.70
7658;DHT22;8462;53.156;8.220;2023-01-20T01:14:29;2.80;88.00
7658;DHT22;8462;53.156;8.220;2023-01-20T01:16:57;2.80;88.50
7658;DHT22;8462;53.156;8.220;2023-01-20T01:19:24;2.80;88.30
7658;DHT22;8462;53.156;8.220;2023-01-20T01:21:51;2.90;88.10
7658;DHT22;8462;53.156;8.220;2023-01-20T01:24:18;2.90;88.00
7658;DHT22;8462;53.156;8.220;2023-01-20T01:26:46;2.80;88.10
7658;DHT22;8462;53.156;8.220;2023-01-20T01:29:13;2.80;88.30
7658;DHT22;8462;53.156;8.220;2023-01-20T01:31:39;2.80;88.10
7658;DHT22;8462;53.156;8.220;2023-01-20T01:34:06;2.80;88.40
7658;DHT22;8462;53.156;8.220;2023-01-20T01:36:33;2.80;88.60
7658;DHT22;8462;53.156;8.220;2023-01-20T01:39:00;2.70;89.00
7658;DHT22;8462;53.156;8.220;2023-01-20T01:41:27;2.80;89.70
7658;DHT22;8462;53.156;8.220;2023-01-20T01:44:07;2.80;89.90
7658;DHT22;8462;53.156;8.220;2023-01-20T01:46:35;2.90;90.00
7658;DHT22;8462;53.156;8.220;2023-01-20T01:49:04;3.00;89.80
7658;DHT22;8462;53.156;8.220;2023-01-20T01:51:34;3.00;89.80
7658;DHT22;8462;53.156;8.220;2023-01-20T01:54:05;3.10;89.50
7658;DHT22;8462;53.156;8.220;2023-01-20T01:56:34;3.20;89.20
7658;DHT22;8462;53.156;8.220;2023-01-20T01:59:03;3.30;89.20
7658;DHT22;8462;53.156;8.220;2023-01-20T02:01:36;3.30;88.80
7658;DHT22;8462;53.156;8.220;2023-01-20T02:04:06;3.40;88.40
7658;DHT22;8462;53.156;8.220;2023-01-20T02:06:37;3.40;88.30
7658;DHT22;8462;53.156;8.220;2023-01-20T02:09:05;3.40;88.20
7658;DHT22;8462;53.156;8.220;2023-01-20T02:11:36;3.40;88.20
7658;DHT22;8462;53.156;8.220;2023-01-20T02:14:04;3.40;88.20
7658;DHT22;8462;53.156;8.220;2023-01-20T02:16:40;3.50;88.20
7658;DHT22;8462;53.156;8.220;2023-01-20T02:19:34;3.50;88.10
7658;DHT22;8462;53.156;8.220;2023-01-20T02:22:13;3.50;88.10
7658;DHT22;8462;53.156;8.220;2023-01-20T02:28:23;3.60;88.00
7658;DHT22;8462;53.156;8.220;2023-01-20T02:33:50;3.70;87.80
7658;DHT22;8462;53.156;8.220;2023-01-20T02:36:26;3.70;87.50
7658;DHT22;8462;53.156;8.220;2023-01-20T02:38:56;3.80;87.60
7658;DHT22;8462;53.156;8.220;2023-01-20T02:41:31;3.80;86.80
7658;DHT22;8462;53.156;8.220;2023-01-20T02:44:05;3.80;86.90
7658;DHT22;8462;53.156;8.220;2023-01-20T02:46:37;3.80;87.00
7658;DHT22;8462;53.156;8.220;2023-01-20T02:49:13;3.80;87.00
7658;DHT22;8462;53.156;8.220;2023-01-20T02:51:46;3.80;86.80
7658;DHT22;8462;53.156;8.220;2023-01-20T02:54:17;3.80;86.90
7658;DHT22;8462;53.156;8.220;2023-01-20T02:56:47;3.80;86.60
7658;DHT22;8462;53.156;8.220;2023-01-20T02:59:17;3.90;86.60
7658;DHT22;8462;53.156;8.220;2023-01-20T03:01:50;3.90;86.50
7658;DHT22;8462;53.156;8.220;2023-01-20T03:04:23;3.80;86.70
7658;DHT22;8462;53.156;8.220;2023-01-20T03:06:53;3.90;86.50
7658;DHT22;8462;53.156;8.220;2023-01-20T03:09:24;3.90;86.50
7658;DHT22;8462;53.156;8.220;2023-01-20T03:11:56;3.90;85.90
7658;DHT22;8462;53.156;8.220;2023-01-20T03:14:24;3.90;87.10
7658;DHT22;8462;53.156;8.220;2023-01-20T03:16:51;3.90;86.30
7658;DHT22;8462;53.156;8.220;2023-01-20T03:19:20;3.90;87.10
7658;DHT22;8462;53.156;8.220;2023-01-20T03:21:47;3.90;85.80
7658;DHT22;8462;53.156;8.220;2023-01-20T03:24:14;3.90;85.80
7658;DHT22;8462;53.156;8.220;2023-01-20T03:26:41;4.00;86.10
7658;DHT22;8462;53.156;8.220;2023-01-20T03:29:09;4.00;85.80
7658;DHT22;8462;53.156;8.220;2023-01-20T03:31:38;4.00;85.60
7658;DHT22;8462;53.156;8.220;2023-01-20T03:34:08;4.00;85.30
7658;DHT22;8462;53.156;8.220;2023-01-20T03:36:40;3.90;85.40
7658;DHT22;8462;53.156;8.220;2023-01-20T03:39:08;3.90;85.30
7658;DHT22;8462;53.156;8.220;2023-01-20T03:41:41;3.90;85.00
7658;DHT22;8462;53.156;8.220;2023-01-20T03:44:12;3.90;85.20
7658;DHT22;8462;53.156;8.220;2023-01-20T03:46:45;3.90;85.60
7658;DHT22;8462;53.156;8.220;2023-01-20T03:49:17;3.90;85.40
7658;DHT22;8462;53.156;8.220;2023-01-20T03:51:53;4.00;85.70
7658;DHT22;8462;53.156;8.220;2023-01-20T03:54:26;4.00;85.40
7658;DHT22;8462;53.156;8.220;2023-01-20T03:56:58;4.00;84.90
7658;DHT22;8462;53.156;8.220;2023-01-20T03:59:29;4.00;84.50
7658;DHT22;8462;53.156;8.220;2023-01-20T04:02:01;4.10;84.70
7658;DHT22;8462;53.156;8.220;2023-01-20T04:04:30;4.10;84.50
7658;DHT22;8462;53.156;8.220;2023-01-20T04:07:02;4.10;84.50
7658;DHT22;8462;53.156;8.220;2023-01-20T04:09:34;4.10;84.50
7658;DHT22;8462;53.156;8.220;2023-01-20T04:12:02;4.10;84.40
7658;DHT22;8462;53.156;8.220;2023-01-20T04:14:29;4.20;84.10
7658;DHT22;8462;53.156;8.220;2023-01-20T04:16:57;4.10;83.70
7658;DHT22;8462;53.156;8.220;2023-01-20T04:19:25;4.10;83.70
7658;DHT22;8462;53.156;8.220;2023-01-20T04:21:57;4.10;83.80
7658;DHT22;8462;53.156;8.220;2023-01-20T04:24:31;4.10;84.20
7658;DHT22;8462;53.156;8.220;2023-01-20T04:27:00;4.10;84.20
7658;DHT22;8462;53.156;8.220;2023-01-20T04:29:26;4.10;85.00
7658;DHT22;8462;53.156;8.220;2023-01-20T04:31:57;4.20;84.10
7658;DHT22;8462;53.156;8.220;2023-01-20T04:34:24;4.20;84.00
7658;DHT22;8462;53.156;8.220;2023-01-20T04:36:51;4.20;84.10
7658;DHT22;8462;53.156;8.220;2023-01-20T04:39:18;4.20;83.80
7658;DHT22;8462;53.156;8.220;2023-01-20T04:41:47;4.30;83.70
7658;DHT22;8462;53.156;8.220;2023-01-20T04:44:14;4.20;83.50
7658;DHT22;8462;53.156;8.220;2023-01-20T04:46:41;4.20;83.60
7658;DHT22;8462;53.156;8.220;2023-01-20T04:49:08;4.30;83.90
7658;DHT22;8462;53.156;8.220;2023-01-20T04:51:35;4.20;83.40
7658;DHT22;8462;53.156;8.220;2023-01-20T04:54:02;4.20;83.50
7658;DHT22;8462;53.156;8.220;2023-01-20T04:56:46;4.20;83.60
7658;DHT22;8462;53.156;8.220;2023-01-20T04:59:13;4.20;83.60
7658;DHT22;8462;53.156;8.220;2023-01-20T05:01:40;4.20;84.70
7658;DHT22;8462;53.156;8.220;2023-01-20T05:04:08;4.20;83.60
7658;DHT22;8462;53.156;8.220;2023-01-20T05:06:35;4.20;83.60
7658;DHT22;8462;53.156;8.220;2023-01-20T05:09:02;4.20;83.50
7658;DHT22;8462;53.156;8.220;2023-01-20T05:11:29;4.20;83.70
7658;DHT22;8462;53.156;8.220;2023-01-20T05:13:58;4.20;83.80
7658;DHT22;8462;53.156;8.220;2023-01-20T05:16:24;4.30;83.70
7658;DHT22;8462;53.156;8.220;2023-01-20T05:18:56;4.30;83.40
7658;DHT22;8462;53.156;8.220;2023-01-20T05:21:23;4.30;83.40
7658;DHT22;8462;53.156;8.220;2023-01-20T05:23:52;4.30;83.50
7658;DHT22;8462;53.156;8.220;2023-01-20T05:26:19;4.30;83.50
7658;DHT22;8462;53.156;8.220;2023-01-20T05:28:47;4.30;83.50
7658;DHT22;8462;53.156;8.220;2023-01-20T05:31:16;4.40;83.70
7658;DHT22;8462;53.156;8.220;2023-01-20T05:33:43;4.50;83.60
7658;DHT22;8462;53.156;8.220;2023-01-20T05:36:11;4.50;83.40
7658;DHT22;8462;53.156;8.220;2023-01-20T05:38:38;4.60;83.30
7658;DHT22;8462;53.156;8.220;2023-01-20T05:41:06;4.60;82.70
7658;DHT22;8462;53.156;8.220;2023-01-20T05:43:34;4.60;82.90
7658;DHT22;8462;53.156;8.220;2023-01-20T05:46:01;4.60;82.70
7658;DHT22;8462;53.156;8.220;2023-01-20T05:48:29;4.60;82.50
7658;DHT22;8462;53.156;8.220;2023-01-20T05:50:57;4.60;82.60
7658;DHT22;8462;53.156;8.220;2023-01-20T05:53:24;4.70;82.30
7658;DHT22;8462;53.156;8.220;2023-01-20T05:55:58;4.60;82.20
7658;DHT22;8462;53.156;8.220;2023-01-20T05:58:25;4.60;82.30
7658;DHT22;8462;53.156;8.220;2023-01-20T06:00:52;4.60;82.20
7658;DHT22;8462;53.156;8.220;2023-01-20T06:03:19;4.60;82.30
7658;DHT22;8462;53.156;8.220;2023-01-20T06:05:47;4.70;82.10
7658;DHT22;8462;53.156;8.220;2023-01-20T06:08:15;4.60;82.10
7658;DHT22;8462;53.156;8.220;2023-01-20T06:10:41;4.60;82.60
7658;DHT22;8462;53.156;8.220;2023-01-20T06:13:08;4.70;82.50
7658;DHT22;8462;53.156;8.220;2023-01-20T06:15:35;4.70;82.10
7658;DHT22;8462;53.156;8.220;2023-01-20T06:18:02;4.70;81.70
7658;DHT22;8462;53.156;8.220;2023-01-20T06:20:29;4.60;81.50
7658;DHT22;8462;53.156;8.220;2023-01-20T06:22:57;4.60;81.90
7658;DHT22;8462;53.156;8.220;2023-01-20T06:25:24;4.60;81.90
7658;DHT22;8462;53.156;8.220;2023-01-20T06:27:51;4.70;81.90
7658;DHT22;8462;53.156;8.220;2023-01-20T06:30:18;4.70;81.70
7658;DHT22;8462;53.156;8.220;2023-01-20T06:32:45;4.70;81.60
7658;DHT22;8462;53.156;8.220;2023-01-20T06:35:13;4.70;81.80
7658;DHT22;8462;53.156;8.220;2023-01-20T06:37:40;4.70;81.60
7658;DHT22;8462;53.156;8.220;2023-01-20T06:40:10;4.80;81.40
7658;DHT22;8462;53.156;8.220;2023-01-20T06:42:37;4.80;81.70
7658;DHT22;8462;53.156;8.220;2023-01-20T06:45:04;4.80;81.50
7658;DHT22;8462;53.156;8.220;2023-01-20T06:47:31;4.80;81.30
7658;DHT22;8462;53.156;8.220;2023-01-20T06:49:58;4.90;81.10
7658;DHT22;8462;53.156;8.220;2023-01-20T06:52:25;4.80;81.80
7658;DHT22;8462;53.156;8.220;2023-01-20T06:54:52;4.80;80.50
7658;DHT22;8462;53.156;8.220;2023-01-20T06:57:20;4.70;80.50
7658;DHT22;8462;53.156;8.220;2023-01-20T06:59:47;4.70;81.00
7658;DHT22;8462;53.156;8.220;2023-01-20T07:02:14;4.70;80.50
7658;DHT22;8462;53.156;8.220;2023-01-20T07:04:41;4.70;80.70
7658;DHT22;8462;53.156;8.220;2023-01-20T07:07:10;4.70;80.60
7658;DHT22;8462;53.156;8.220;2023-01-20T07:09:37;4.70;80.40
7658;DHT22;8462;53.156;8.220;2023-01-20T07:12:04;4.80;80.70
7658;DHT22;8462;53.156;8.220;2023-01-20T07:14:33;4.80;80.50
7658;DHT22;8462;53.156;8.220;2023-01-20T07:16:59;4.80;80.40
7658;DHT22;8462;53.156;8.220;2023-01-20T07:19:26;4.80;80.20
7658;DHT22;8462;53.156;8.220;2023-01-20T07:21:53;4.80;80.50
7658;DHT22;8462;53.156;8.220;2023-01-20T07:24:20;4.80;80.60
7658;DHT22;8462;53.156;8.220;2023-01-20T07:26:47;4.80;80.00
7658;DHT22;8462;53.156;8.220;2023-01-20T07:29:14;4.80;80.10
7658;DHT22;8462;53.156;8.220;2023-01-20T07:31:42;4.70;79.80
7658;DHT22;8462;53.156;8.220;2023-01-20T07:34:10;4.70;80.20
7658;DHT22;8462;53.156;8.220;2023-01-20T07:36:37;4.70;80.10
7658;DHT22;8462;53.156;8.220;2023-01-20T07:39:03;4.70;80.20
7658;DHT22;8462;53.156;8.220;2023-01-20T07:41:30;4.70;80.40
7658;DHT22;8462;53.156;8.220;2023-01-20T07:43:57;4.70;80.30
7658;DHT22;8462;53.156;8.220;2023-01-20T07:46:24;4.60;79.60
7658;DHT22;8462;53.156;8.220;2023-01-20T07:48:52;4.70;80.00
7658;DHT22;8462;53.156;8.220;2023-01-20T07:51:23;4.70;79.80
7658;DHT22;8462;53.156;8.220;2023-01-20T07:53:50;4.70;80.00
7658;DHT22;8462;53.156;8.220;2023-01-20T07:56:19;4.60;79.70
7658;DHT22;8462;53.156;8.220;2023-01-20T07:58:47;4.70;79.80
7658;DHT22;8462;53.156;8.220;2023-01-20T08:01:17;4.70;80.00
7658;DHT22;8462;53.156;8.220;2023-01-20T08:03:45;4.70;80.00
7658;DHT22;8462;53.156;8.220;2023-01-20T08:06:17;4.80;79.70
7658;DHT22;8462;53.156;8.220;2023-01-20T08:08:44;4.80;79.80
7658;DHT22;8462;53.156;8.220;2023-01-20T08:11:13;4.90;79.90
7658;DHT22;8462;53.156;8.220;2023-01-20T08:13:41;4.90;79.60
7658;DHT22;8462;53.156;8.220;2023-01-20T08:16:10;4.90;79.50
7658;DHT22;8462;53.156;8.220;2023-01-20T08:18:38;5.00;79.70
7658;DHT22;8462;53.156;8.220;2023-01-20T08:21:18;5.10;79.40
7658;DHT22;8462;53.156;8.220;2023-01-20T08:23:45;5.10;78.40
7658;DHT22;8462;53.156;8.220;2023-01-20T08:26:13;5.10;79.30
7658;DHT22;8462;53.156;8.220;2023-01-20T08:28:40;5.20;78.60
7658;DHT22;8462;53.156;8.220;2023-01-20T08:31:11;5.20;78.80
7658;DHT22;8462;53.156;8.220;2023-01-20T08:33:39;5.30;78.90
7658;DHT22;8462;53.156;8.220;2023-01-20T08:36:09;5.30;78.40
7658;DHT22;8462;53.156;8.220;2023-01-20T08:38:38;5.40;77.80
7658;DHT22;8462;53.156;8.220;2023-01-20T08:41:07;5.40;77.80
7658;DHT22;8462;53.156;8.220;2023-01-20T08:43:34;5.30;77.40
7658;DHT22;8462;53.156;8.220;2023-01-20T08:46:03;5.30;77.70
7658;DHT22;8462;53.156;8.220;2023-01-20T08:48:31;5.30;77.80
7658;DHT22;8462;53.156;8.220;2023-01-20T08:50:58;5.50;77.70
7658;DHT22;8462;53.156;8.220;2023-01-20T08:53:25;5.50;78.00
7658;DHT22;8462;53.156;8.220;2023-01-20T08:55:57;5.60;77.40
7658;DHT22;8462;53.156;8.220;2023-01-20T08:58:26;5.60;77.00
7658;DHT22;8462;53.156;8.220;2023-01-20T09:00:53;5.60;77.30
7658;DHT22;8462;53.156;8.220;2023-01-20T09:03:21;5.60;77.10
7658;DHT22;8462;53.156;8.220;2023-01-20T09:05:49;5.70;76.30
7658;DHT22;8462;53.156;8.220;2023-01-20T09:08:17;5.60;76.00
7658;DHT22;8462;53.156;8.220;2023-01-20T09:10:45;5.60;76.10
7658;DHT22;8462;53.156;8.220;2023-01-20T09:13:13;5.60;76.30
7658;DHT22;8462;53.156;8.220;2023-01-20T09:15:40;5.60;75.90
7658;DHT22;8462;53.156;8.220;2023-01-20T09:18:07;5.50;75.60
7658;DHT22;8462;53.156;8.220;2023-01-20T09:20:34;5.60;75.80
7658;DHT22;8462;53.156;8.220;2023-01-20T09:23:01;5.60;75.60
7658;DHT22;8462;53.156;8.220;2023-01-20T09:25:28;5.60;76.00
7658;DHT22;8462;53.156;8.220;2023-01-20T09:27:58;5.70;76.30
7658;DHT22;8462;53.156;8.220;2023-01-20T09:30:27;5.90;75.80
7658;DHT22;8462;53.156;8.220;2023-01-20T09:32:54;5.90;74.90
7658;DHT22;8462;53.156;8.220;2023-01-20T09:35:25;5.90;75.10
7658;DHT22;8462;53.156;8.220;2023-01-20T09:37:52;6.00;74.60
7658;DHT22;8462;53.156;8.220;2023-01-20T09:40:40;6.00;74.40
7658;DHT22;8462;53.156;8.220;2023-01-20T09:43:34;6.10;73.60
7658;DHT22;8462;53.156;8.220;2023-01-20T09:46:36;6.10;73.90
7658;DHT22;8462;53.156;8.220;2023-01-20T09:49:18;6.20;74.00
7658;DHT22;8462;53.156;8.220;2023-01-20T09:52:10;6.20;73.10
7658;DHT22;8462;53.156;8.220;2023-01-20T09:55:01;6.30;73.50
7658;DHT22;8462;53.156;8.220;2023-01-20T09:57:34;6.30;73.10
7658;DHT22;8462;53.156;8.220;2023-01-20T10:00:07;6.30;73.30
7658;DHT22;8462;53.156;8.220;2023-01-20T10:02:40;6.30;73.10
7658;DHT22;8462;53.156;8.220;2023-01-20T10:05:11;6.40;73.20
7658;DHT22;8462;53.156;8.220;2023-01-20T10:07:44;6.40;73.00
7658;DHT22;8462;53.156;8.220;2023-01-20T10:10:17;6.50;72.80
7658;DHT22;8462;53.156;8.220;2023-01-20T10:12:48;6.40;72.60
7658;DHT22;8462;53.156;8.220;2023-01-20T10:15:21;6.50;72.60
7658;DHT22;8462;53.156;8.220;2023-01-20T10:17:54;6.50;72.80
7658;DHT22;8462;53.156;8.220;2023-01-20T10:20:27;6.50;72.70
7658;DHT22;8462;53.156;8.220;2023-01-20T10:23:01;6.60;72.10
7658;DHT22;8462;53.156;8.220;2023-01-20T10:25:36;6.50;71.70
7658;DHT22;8462;53.156;8.220;2023-01-20T10:28:09;6.50;71.70
7658;DHT22;8462;53.156;8.220;2023-01-20T10:30:38;6.40;72.10
7658;DHT22;8462;53.156;8.220;2023-01-20T10:33:08;6.30;72.20
7658;DHT22;8462;53.156;8.220;2023-01-20T10:35:37;6.30;72.60
7658;DHT22;8462;53.156;8.220;2023-01-20T10:38:07;6.30;72.00
7658;DHT22;8462;53.156;8.220;2023-01-20T10:40:39;6.30;72.10
7658;DHT22;8462;53.156;8.220;2023-01-20T10:43:10;6.30;72.00
7658;DHT22;8462;53.156;8.220;2023-01-20T10:45:49;6.30;72.00
7658;DHT22;8462;53.156;8.220;2023-01-20T10:48:27;6.30;71.70
7658;DHT22;8462;53.156;8.220;2023-01-20T10:51:04;6.30;72.00
7658;DHT22;8462;53.156;8.220;2023-01-20T10:53:39;6.30;71.90
7658;DHT22;8462;53.156;8.220;2023-01-20T10:56:33;6.30;71.90
7658;DHT22;8462;53.156;8.220;2023-01-20T10:59:03;6.30;72.00
7658;DHT22;8462;53.156;8.220;2023-01-20T11:01:32;6.20;72.00
7658;DHT22;8462;53.156;8.220;2023-01-20T11:04:02;6.20;72.00
7658;DHT22;8462;53.156;8.220;2023-01-20T11:06:29;6.20;72.20
7658;DHT22;8462;53.156;8.220;2023-01-20T11:08:59;6.10;72.00
7658;DHT22;8462;53.156;8.220;2023-01-20T11:11:33;6.20;72.30
7658;DHT22;8462;53.156;8.220;2023-01-20T11:14:03;6.20;72.00
7658;DHT22;8462;53.156;8.220;2023-01-20T11:16:30;6.20;72.20
7658;DHT22;8462;53.156;8.220;2023-01-20T11:18:58;6.30;72.10
7658;DHT22;8462;53.156;8.220;2023-01-20T11:21:29;6.30;71.90
7658;DHT22;8462;53.156;8.220;2023-01-20T11:23:58;6.40;72.00
7658;DHT22;8462;53.156;8.220;2023-01-20T11:26:26;6.40;72.00
7658;DHT22;8462;53.156;8.220;2023-01-20T11:28:56;6.50;72.00
7658;DHT22;8462;53.156;8.220;2023-01-20T11:31:38;6.50;71.40
7658;DHT22;8462;53.156;8.220;2023-01-20T11:34:20;6.50;71.10
7658;DHT22;8462;53.156;8.220;2023-01-20T11:36:48;6.50;71.60
7658;DHT22;8462;53.156;8.220;2023-01-20T11:39:26;6.50;71.40
7658;DHT22;8462;53.156;8.220;2023-01-20T11:42:10;6.50;70.40
7658;DHT22;8462;53.156;8.220;2023-01-20T11:44:41;6.50;70.90
7658;DHT22;8462;53.156;8.220;2023-01-20T11:47:30;6.40;71.30
7658;DHT22;8462;53.156;8.220;2023-01-20T11:50:24;6.50;71.70
7658;DHT22;8462;53.156;8.220;2023-01-20T11:53:11;6.60;72.60
7658;DHT22;8462;53.156;8.220;2023-01-20T11:55:45;6.60;71.60
7658;DHT22;8462;53.156;8.220;2023-01-20T11:58:17;6.70;70.90
7658;DHT22;8462;53.156;8.220;2023-01-20T12:00:45;6.60;70.40
7658;DHT22;8462;53.156;8.220;2023-01-20T12:06:16;6.60;70.80
7658;DHT22;8462;53.156;8.220;2023-01-20T12:08:49;6.50;70.50
7658;DHT22;8462;53.156;8.220;2023-01-20T12:11:19;6.60;71.20
7658;DHT22;8462;53.156;8.220;2023-01-20T12:14:00;6.60;71.50
7658;DHT22;8462;53.156;8.220;2023-01-20T12:16:51;6.70;70.50
7658;DHT22;8462;53.156;8.220;2023-01-20T12:19:23;6.80;70.40
7658;DHT22;8462;53.156;8.220;2023-01-20T12:21:54;6.80;70.30
7658;DHT22;8462;53.156;8.220;2023-01-20T12:24:28;6.80;70.10
7658;DHT22;8462;53.156;8.220;2023-01-20T12:27:22;6.80;69.90
7658;DHT22;8462;53.156;8.220;2023-01-20T12:29:50;6.80;70.30
7658;DHT22;8462;53.156;8.220;2023-01-20T12:32:20;6.80;70.60
7658;DHT22;8462;53.156;8.220;2023-01-20T12:34:47;6.90;70.10
7658;DHT22;8462;53.156;8.220;2023-01-20T12:37:19;7.00;70.20
7658;DHT22;8462;53.156;8.220;2023-01-20T12:43:05;7.00;69.70
7658;DHT22;8462;53.156;8.220;2023-01-20T12:45:48;7.10;69.70
7658;DHT22;8462;53.156;8.220;2023-01-20T12:48:28;7.00;69.70
7658;DHT22;8462;53.156;8.220;2023-01-20T12:51:08;7.00;69.30
7658;DHT22;8462;53.156;8.220;2023-01-20T12:53:55;7.10;69.40
7658;DHT22;8462;53.156;8.220;2023-01-20T12:56:36;7.10;69.40
7658;DHT22;8462;53.156;8.220;2023-01-20T12:59:10;7.10;69.00
7658;DHT22;8462;53.156;8.220;2023-01-20T13:01:53;7.10;68.60
7658;DHT22;8462;53.156;8.220;2023-01-20T13:04:38;7.10;69.30
7658;DHT22;8462;53.156;8.220;2023-01-20T13:07:22;7.10;69.00
7658;DHT22;8462;53.156;8.220;2023-01-20T13:10:06;7.20;70.70
7658;DHT22;8462;53.156;8.220;2023-01-20T13:12:45;7.30;68.90
7658;DHT22;8462;53.156;8.220;2023-01-20T13:15:18;7.20;68.60
7658;DHT22;8462;53.156;8.220;2023-01-20T13:18:02;7.10;67.80
7658;DHT22;8462;53.156;8.220;2023-01-20T13:20:34;7.10;67.80
7658;DHT22;8462;53.156;8.220;2023-01-20T13:23:05;7.00;68.30
7658;DHT22;8462;53.156;8.220;2023-01-20T13:25:35;6.90;68.50
7658;DHT22;8462;53.156;8.220;2023-01-20T13:28:13;6.70;68.90
7658;DHT22;8462;53.156;8.220;2023-01-20T13:30:42;6.70;69.50
7658;DHT22;8462;53.156;8.220;2023-01-20T13:33:15;6.80;69.60
7658;DHT22;8462;53.156;8.220;2023-01-20T13:35:45;6.80;69.70
7658;DHT22;8462;53.156;8.220;2023-01-20T13:38:21;6.90;69.70
7658;DHT22;8462;53.156;8.220;2023-01-20T13:40:51;6.90;68.90
7658;DHT22;8462;53.156;8.220;2023-01-20T13:43:52;6.90;68.90
7658;DHT22;8462;53.156;8.220;2023-01-20T13:46:47;6.90;69.20
7658;DHT22;8462;53.156;8.220;2023-01-20T13:49:26;6.90;69.40
7658;DHT22;8462;53.156;8.220;2023-01-20T13:51:54;6.80;69.00
7658;DHT22;8462;53.156;8.220;2023-01-20T13:54:40;6.80;68.70
7658;DHT22;8462;53.156;8.220;2023-01-20T13:57:33;6.70;69.40
7658;DHT22;8462;53.156;8.220;2023-01-20T14:00:14;6.60;69.70
7658;DHT22;8462;53.156;8.220;2023-01-20T14:02:42;6.60;69.50
7658;DHT22;8462;53.156;8.220;2023-01-20T14:05:30;6.60;69.50
7658;DHT22;8462;53.156;8.220;2023-01-20T14:07:58;6.70;69.40
7658;DHT22;8462;53.156;8.220;2023-01-20T14:10:26;6.60;69.10
7658;DHT22;8462;53.156;8.220;2023-01-20T14:12:53;6.40;69.40
7658;DHT22;8462;53.156;8.220;2023-01-20T14:15:35;6.40;69.90
7658;DHT22;8462;53.156;8.220;2023-01-20T14:18:02;6.20;70.40
7658;DHT22;8462;53.156;8.220;2023-01-20T14:20:30;6.20;70.90
7658;DHT22;8462;53.156;8.220;2023-01-20T14:23:29;6.30;71.40
7658;DHT22;8462;53.156;8.220;2023-01-20T14:25:58;6.40;71.50
7658;DHT22;8462;53.156;8.220;2023-01-20T14:28:26;6.40;71.80
7658;DHT22;8462;53.156;8.220;2023-01-20T14:34:02;6.40;70.70
7658;DHT22;8462;53.156;8.220;2023-01-20T14:36:31;6.50;69.90
7658;DHT22;8462;53.156;8.220;2023-01-20T14:39:00;6.30;70.20
7658;DHT22;8462;53.156;8.220;2023-01-20T14:41:31;6.20;70.20
7658;DHT22;8462;53.156;8.220;2023-01-20T14:43:59;6.10;70.80
7658;DHT22;8462;53.156;8.220;2023-01-20T14:46:29;6.10;71.00
7658;DHT22;8462;53.156;8.220;2023-01-20T14:48:57;6.00;71.30
7658;DHT22;8462;53.156;8.220;2023-01-20T14:51:24;6.00;71.30
7658;DHT22;8462;53.156;8.220;2023-01-20T14:54:29;6.10;70.80
7658;DHT22;8462;53.156;8.220;2023-01-20T14:57:08;6.00;71.00
7658;DHT22;8462;53.156;8.220;2023-01-20T14:59:36;6.00;72.20
7658;DHT22;8462;53.156;8.220;2023-01-20T15:02:13;6.00;71.50
7658;DHT22;8462;53.156;8.220;2023-01-20T15:04:42;6.00;71.30
7658;DHT22;8462;53.156;8.220;2023-01-20T15:07:15;6.00;71.30
7658;DHT22;8462;53.156;8.220;2023-01-20T15:09:50;6.00;71.30
7658;DHT22;8462;53.156;8.220;2023-01-20T15:12:38;5.90;71.30
7658;DHT22;8462;53.156;8.220;2023-01-20T15:15:18;5.80;71.50
7658;DHT22;8462;53.156;8.220;2023-01-20T15:18:11;5.80;71.50
7658;DHT22;8462;53.156;8.220;2023-01-20T15:20:40;5.80;71.50
7658;DHT22;8462;53.156;8.220;2023-01-20T15:23:13;5.80;71.60
7658;DHT22;8462;53.156;8.220;2023-01-20T15:25:41;5.70;71.80
7658;DHT22;8462;53.156;8.220;2023-01-20T15:28:20;5.60;71.70
7658;DHT22;8462;53.156;8.220;2023-01-20T15:30:50;5.60;72.10
7658;DHT22;8462;53.156;8.220;2023-01-20T15:33:18;5.60;72.10
7658;DHT22;8462;53.156;8.220;2023-01-20T15:35:53;5.60;72.40
7658;DHT22;8462;53.156;8.220;2023-01-20T15:38:19;5.60;72.40
7658;DHT22;8462;53.156;8.220;2023-01-20T15:40:47;5.60;72.50
7658;DHT22;8462;53.156;8.220;2023-01-20T15:43:15;5.50;72.30
7658;DHT22;8462;53.156;8.220;2023-01-20T15:45:43;5.50;72.40
7658;DHT22;8462;53.156;8.220;2023-01-20T15:48:15;5.40;72.40
7658;DHT22;8462;53.156;8.220;2023-01-20T15:50:44;5.40;72.50
7658;DHT22;8462;53.156;8.220;2023-01-20T15:53:12;5.40;72.60
7658;DHT22;8462;53.156;8.220;2023-01-20T15:55:47;5.40;72.70
7658;DHT22;8462;53.156;8.220;2023-01-20T15:58:26;5.40;72.80
7658;DHT22;8462;53.156;8.220;2023-01-20T16:00:54;5.40;72.90
7658;DHT22;8462;53.156;8.220;2023-01-20T16:03:21;5.30;72.90
7658;DHT22;8462;53.156;8.220;2023-01-20T16:05:50;5.30;72.80
7658;DHT22;8462;53.156;8.220;2023-01-20T16:08:19;5.10;72.90
7658;DHT22;8462;53.156;8.220;2023-01-20T16:10:47;5.00;73.00
7658;DHT22;8462;53.156;8.220;2023-01-20T16:13:14;5.00;73.10
7658;DHT22;8462;53.156;8.220;2023-01-20T16:15:41;4.90;73.30
7658;DHT22;8462;53.156;8.220;2023-01-20T16:18:13;4.90;73.20
7658;DHT22;8462;53.156;8.220;2023-01-20T16:20:43;4.90;73.30
7658;DHT22;8462;53.156;8.220;2023-01-20T16:23:12;4.90;73.20
7658;DHT22;8462;53.156;8.220;2023-01-20T16:25:39;4.80;73.30
7658;DHT22;8462;53.156;8.220;2023-01-20T16:28:14;4.80;73.30
7658;DHT22;8462;53.156;8.220;2023-01-20T16:30:43;4.80;73.50
7658;DHT22;8462;53.156;8.220;2023-01-20T16:33:18;4.80;73.60
7658;DHT22;8462;53.156;8.220;2023-01-20T16:35:46;4.70;73.70
7658;DHT22;8462;53.156;8.220;2023-01-20T16:38:17;4.70;73.70
7658;DHT22;8462;53.156;8.220;2023-01-20T16:40:47;4.60;73.80
7658;DHT22;8462;53.156;8.220;2023-01-20T16:43:15;4.60;73.90
7658;DHT22;8462;53.156;8.220;2023-01-20T16:45:47;4.60;74.20
7658;DHT22;8462;53.156;8.220;2023-01-20T16:48:17;4.50;74.30
7658;DHT22;8462;53.156;8.220;2023-01-20T16:50:44;4.50;74.40
7658;DHT22;8462;53.156;8.220;2023-01-20T16:53:15;4.50;74.60
7658;DHT22;8462;53.156;8.220;2023-01-20T16:55:43;4.40;74.70
7658;DHT22;8462;53.156;8.220;2023-01-20T16:58:11;4.40;74.90